Time;durP1;ratioP1;P1;durP2;ratioP2;P2;SDS_P1;SDS_P2;PMS_P1;PMS_P2;Temp;Humidity;BMP_temperature;BMP_pressure;BME280_temperature;BME280_humidity;BME280_pressure;Samples;Min_cycle;Max_cycle;Signal;HPM_P1;HPM_P2
2023/10/14 00:01:10;;;;;;;10.57;5.50;;;;;;;23.57;47.68;99588.38;5035695;28;20200;-69
2023/10/14 00:03:41;;;;;;;16.15;5.30;;;;;;;23.69;47.46;99572.00;5032988;28;20602;-69
2023/10/14 00:06:12;;;;;;;19.42;5.40;;;;;;;23.75;47.36;99583.72;5036398;28;20208;-70
2023/10/14 00:08:48;;;;;;;15.90;5.95;;;;;;;23.72;47.45;99573.38;5032916;28;20733;-68
2023/10/14 00:11:16;;;;;;;14.48;5.63;;;;;;;23.64;47.52;99571.94;5034056;28;20212;-69
2023/10/14 00:13:48;;;;;;;18.45;5.85;;;;;;;23.55;47.92;99573.47;5032113;28;20693;-69
2023/10/14 00:16:29;;;;;;;22.73;5.63;;;;;;;23.55;47.93;99579.72;5036030;28;20205;-69
2023/10/14 00:18:59;;;;;;;20.90;6.57;;;;;;;23.43;48.17;99565.47;5033897;28;20288;-69
2023/10/14 00:21:28;;;;;;;17.25;6.55;;;;;;;23.39;48.49;99572.47;5035960;28;20234;-69
2023/10/14 00:23:57;;;;;;;17.40;6.13;;;;;;;23.47;48.25;99563.91;5041632;28;20321;-70
2023/10/14 00:26:25;;;;;;;16.40;6.13;;;;;;;23.43;48.35;99562.75;5031892;28;20196;-69
2023/10/14 00:28:55;;;;;;;23.80;6.10;;;;;;;23.42;48.64;99558.41;5032547;28;20211;-70
2023/10/14 00:31:24;;;;;;;18.95;5.93;;;;;;;23.38;48.77;99570.84;5034541;28;20212;-70
2023/10/14 00:33:53;;;;;;;17.80;6.45;;;;;;;23.38;48.77;99570.84;5034714;28;20695;-69
2023/10/14 00:36:22;;;;;;;13.23;5.80;;;;;;;23.38;48.84;99573.53;5034755;28;20216;-69
2023/10/14 00:38:56;;;;;;;12.80;5.72;;;;;;;23.41;49.01;99570.31;5034368;28;20600;-69
2023/10/14 00:41:26;;;;;;;17.05;5.43;;;;;;;23.45;48.76;99567.91;5035862;28;20306;-69
2023/10/14 00:43:56;;;;;;;17.80;6.88;;;;;;;23.43;49.01;99576.28;5035379;28;20274;-69
2023/10/14 00:46:31;;;;;;;20.55;6.05;;;;;;;23.41;49.33;99558.66;5034083;28;20723;-71
2023/10/14 00:49:04;;;;;;;12.80;6.13;;;;;;;23.36;49.45;99551.31;5035006;28;20499;-67
2023/10/14 00:51:33;;;;;;;14.15;6.55;;;;;;;23.50;49.21;99552.59;5034118;28;20200;-70
2023/10/14 00:54:03;;;;;;;17.83;6.72;;;;;;;23.46;49.31;99554.16;5035779;28;20235;-69
2023/10/14 00:56:31;;;;;;;16.08;6.43;;;;;;;23.46;49.22;99564.97;5034780;28;20208;-68
2023/10/14 00:59:03;;;;;;;13.68;6.45;;;;;;;23.42;49.41;99563.00;5032456;28;20211;-70
2023/10/14 01:01:32;;;;;;;16.33;6.40;;;;;;;23.41;49.58;99567.59;5037559;28;20699;-69
2023/10/14 01:04:18;;;;;;;16.70;5.93;;;;;;;23.36;49.89;99562.16;5034671;28;20253;-71
2023/10/14 01:06:59;;;;;;;20.55;7.20;;;;;;;23.36;49.73;99550.50;5033248;28;20210;-70
2023/10/14 01:09:34;;;;;;;16.52;6.63;;;;;;;23.47;49.71;99544.97;5034235;28;20255;-70
2023/10/14 01:12:16;;;;;;;17.42;6.32;;;;;;;23.36;49.62;99548.63;5033841;28;20208;-69
2023/10/14 01:14:45;;;;;;;15.07;6.43;;;;;;;23.45;49.29;99546.28;5035336;28;20222;-70
2023/10/14 01:17:20;;;;;;;17.80;6.15;;;;;;;23.36;49.56;99536.97;5033501;28;20217;-69
2023/10/14 01:19:48;;;;;;;12.60;5.78;;;;;;;23.37;49.41;99541.31;5035760;28;20297;-69
2023/10/14 01:22:17;;;;;;;14.05;5.50;;;;;;;23.27;49.48;99525.78;5035253;28;20368;-69
2023/10/14 01:24:45;;;;;;;11.32;6.20;;;;;;;23.27;49.61;99539.31;5036493;28;20204;-68
2023/10/14 01:27:13;;;;;;;17.83;5.10;;;;;;;23.38;49.28;99530.25;5032559;28;20209;-70
2023/10/14 01:29:41;;;;;;;12.45;5.32;;;;;;;23.38;49.55;99524.03;5033651;28;20255;-68
2023/10/14 01:32:37;;;;;;;22.35;5.97;;;;;;;23.31;49.99;99520.72;5037363;28;20215;-69
2023/10/14 01:35:23;;;;;;;26.35;6.72;;;;;;;23.33;50.22;99529.38;5031809;28;20260;-69
2023/10/14 01:37:54;;;;;;;21.75;6.47;;;;;;;23.28;50.30;99519.31;5035749;28;20981;-69
2023/10/14 01:40:30;;;;;;;19.73;6.53;;;;;;;23.33;50.23;99526.66;5032027;28;20610;-68
2023/10/14 01:43:05;;;;;;;17.27;6.20;;;;;;;23.31;50.88;99529.59;5034737;28;20282;-69
2023/10/14 01:45:39;;;;;;;13.90;6.63;;;;;;;23.29;50.69;99520.97;5033538;28;20200;-68
2023/10/14 01:48:21;;;;;;;14.23;5.93;;;;;;;23.31;51.06;99524.19;5034104;28;20201;-70
2023/10/14 01:50:54;;;;;;;17.30;6.45;;;;;;;23.23;51.21;99516.53;5034507;28;20214;-69
2023/10/14 01:53:25;;;;;;;15.73;6.93;;;;;;;23.24;51.45;99512.78;5032161;28;20754;-70
2023/10/14 01:55:54;;;;;;;15.88;6.03;;;;;;;23.28;51.13;99516.63;5035517;28;20296;-69
2023/10/14 01:58:29;;;;;;;16.90;6.22;;;;;;;23.26;51.55;99516.03;5033416;28;20216;-69
2023/10/14 02:01:04;;;;;;;16.00;6.95;;;;;;;23.24;51.68;99519.00;5033131;28;20207;-70
2023/10/14 02:03:40;;;;;;;17.45;7.00;;;;;;;23.25;51.65;99511.69;5033404;28;20220;-69
2023/10/14 02:06:13;;;;;;;13.77;6.07;;;;;;;23.25;51.85;99514.41;5035337;28;20204;-70
2023/10/14 02:08:42;;;;;;;13.57;6.65;;;;;;;23.24;51.82;99518.19;5031654;28;20250;-69
2023/10/14 02:11:10;;;;;;;21.67;6.70;;;;;;;23.23;51.70;99522.78;5030300;28;20666;-69
2023/10/14 02:13:38;;;;;;;13.60;6.55;;;;;;;23.26;51.51;99522.28;5033869;28;20867;-72
2023/10/14 02:16:08;;;;;;;16.00;6.32;;;;;;;23.19;52.02;99537.88;5034843;28;20263;-68
2023/10/14 02:18:37;;;;;;;15.07;6.78;;;;;;;23.15;52.18;99531.34;5031903;28;20578;-69
2023/10/14 02:21:08;;;;;;;23.60;7.45;;;;;;;23.16;52.32;99532.16;5035686;28;20212;-70
2023/10/14 02:23:47;;;;;;;20.33;6.80;;;;;;;23.14;52.14;99543.22;5033328;28;20210;-69
2023/10/14 02:26:22;;;;;;;14.85;6.55;;;;;;;23.09;52.41;99547.75;5031060;28;20255;-69
2023/10/14 02:28:52;;;;;;;20.20;7.18;;;;;;;23.11;52.11;99534.81;5034100;28;20196;-70
2023/10/14 02:31:29;;;;;;;20.52;6.20;;;;;;;23.05;52.40;99533.91;5033816;28;20201;-69
2023/10/14 02:34:04;;;;;;;16.80;6.20;;;;;;;23.11;51.95;99534.81;5033121;28;20200;-69
2023/10/14 02:36:35;;;;;;;13.27;5.97;;;;;;;23.09;52.06;99528.81;5028663;28;20223;-69
2023/10/14 02:39:12;;;;;;;16.73;6.32;;;;;;;23.00;52.07;99533.03;5032915;28;20216;-69
2023/10/14 02:41:44;;;;;;;18.23;6.47;;;;;;;23.02;52.12;99531.72;5032580;28;20225;-68
2023/10/14 02:44:28;;;;;;;19.77;6.47;;;;;;;22.94;52.03;99528.66;5032933;28;20208;-69
2023/10/14 02:47:01;;;;;;;18.45;6.10;;;;;;;23.00;51.73;99533.03;5033643;28;20709;-68
2023/10/14 02:49:35;;;;;;;15.10;6.18;;;;;;;22.89;52.30;99532.91;5034522;28;20197;-70
2023/10/14 02:52:08;;;;;;;12.73;6.18;;;;;;;22.92;51.74;99530.78;5034180;28;20211;-69
2023/10/14 02:54:39;;;;;;;18.75;6.28;;;;;;;22.88;51.94;99523.16;5033482;28;20274;-70
2023/10/14 02:57:23;;;;;;;17.48;6.72;;;;;;;22.88;51.83;99533.16;5033800;28;20285;-68
2023/10/14 02:59:56;;;;;;;22.13;6.90;;;;;;;22.92;51.71;99538.88;5037519;28;20290;-70
2023/10/14 03:02:26;;;;;;;17.05;6.30;;;;;;;22.92;51.50;99525.38;5038605;28;20258;-71
2023/10/14 03:05:08;;;;;;;17.48;5.95;;;;;;;22.85;51.73;99523.69;5035324;28;20219;-70
2023/10/14 03:07:47;;;;;;;21.27;6.78;;;;;;;22.85;51.82;99531.78;5033489;28;20208;-68
2023/10/14 03:10:19;;;;;;;16.92;6.78;;;;;;;22.88;51.66;99528.56;5037446;28;20278;-70
2023/10/14 03:12:50;;;;;;;18.70;6.53;;;;;;;22.82;51.96;99535.00;5034838;28;20204;-70
2023/10/14 03:15:22;;;;;;;17.92;7.03;;;;;;;22.90;52.00;99533.72;5035603;28;20233;-69
2023/10/14 03:17:55;;;;;;;16.90;6.57;;;;;;;22.84;52.20;99530.16;5034930;28;20212;-70
2023/10/14 03:20:46;;;;;;;19.58;7.65;;;;;;;22.82;52.17;99524.19;5038968;28;20669;-68
2023/10/14 03:23:19;;;;;;;13.68;6.47;;;;;;;22.85;52.18;99539.91;5037047;28;20303;-69
2023/10/14 03:25:49;;;;;;;17.08;6.90;;;;;;;22.83;52.44;99544.72;5034883;28;20231;-68
2023/10/14 03:28:20;;;;;;;16.02;6.50;;;;;;;22.82;52.44;99547.69;5032501;28;20200;-69
2023/10/14 03:30:55;;;;;;;15.80;7.00;;;;;;;22.83;52.46;99552.03;5035691;28;20201;-69
2023/10/14 03:33:27;;;;;;;18.60;7.32;;;;;;;22.79;52.62;99546.28;5036817;28;20235;-69
2023/10/14 03:36:00;;;;;;;17.38;6.45;;;;;;;22.78;52.68;99555.47;5035891;28;20267;-68
2023/10/14 03:38:39;;;;;;;11.85;6.15;;;;;;;22.78;52.71;99551.97;5037182;28;20201;-69
2023/10/14 03:41:17;;;;;;;21.65;6.07;;;;;;;22.76;52.94;99554.91;5035529;28;20208;-68
2023/10/14 03:43:54;;;;;;;25.20;7.05;;;;;;;22.74;52.98;99551.63;5038124;28;20974;-69
2023/10/14 03:46:32;;;;;;;19.60;6.75;;;;;;;22.72;52.88;99564.53;5034659;28;20226;-69
2023/10/14 03:49:06;;;;;;;18.55;6.32;;;;;;;22.73;52.89;99566.19;5034557;28;20742;-70
2023/10/14 03:51:38;;;;;;;24.35;6.55;;;;;;;22.71;53.14;99551.28;5033578;28;20569;-69
2023/10/14 03:54:08;;;;;;;12.38;6.15;;;;;;;22.67;53.13;99555.56;5036324;28;20690;-69
2023/10/14 03:56:38;;;;;;;18.58;5.75;;;;;;;22.62;53.05;99559.00;5034686;28;20707;-68
2023/10/14 03:59:07;;;;;;;12.32;6.05;;;;;;;22.63;53.11;99563.31;5034631;28;20200;-69
2023/10/14 04:01:43;;;;;;;22.13;6.57;;;;;;;22.56;53.41;99569.97;5035248;28;20227;-68
2023/10/14 04:04:17;;;;;;;22.35;6.55;;;;;;;22.58;53.46;99565.16;5034246;28;20200;-69
2023/10/14 04:06:51;;;;;;;18.40;5.38;;;;;;;22.56;53.69;99561.88;5032522;28;20223;-72
2023/10/14 04:09:24;;;;;;;11.45;5.68;;;;;;;22.57;53.92;99577.03;5032583;28;20266;-69
2023/10/14 04:11:53;;;;;;;19.02;6.10;;;;;;;22.58;53.81;99568.66;5037351;28;20201;-70
2023/10/14 04:14:27;;;;;;;14.55;5.95;;;;;;;22.54;53.85;99567.53;5035946;28;20212;-69
2023/10/14 04:17:09;;;;;;;19.42;5.82;;;;;;;22.51;53.99;99568.03;5037391;28;20322;-70
2023/10/14 04:19:45;;;;;;;17.55;5.68;;;;;;;22.54;53.89;99575.63;5034840;28;20284;-69
2023/10/14 04:22:32;;;;;;;19.25;5.72;;;;;;;22.47;54.21;99572.28;5034228;28;20230;-68
2023/10/14 04:25:18;;;;;;;16.33;5.55;;;;;;;22.45;54.42;99588.72;5034374;28;20326;-70
2023/10/14 04:28:17;;;;;;;12.98;3.45;;;;;;;22.39;52.61;99572.69;5033260;28;20292;-70
2023/10/14 04:30:45;;;;;;;9.95;2.60;;;;;;;22.32;52.34;99585.56;5035208;28;20637;-70
2023/10/14 04:33:35;;;;;;;6.80;1.77;;;;;;;22.34;52.18;99575.34;5033707;28;20566;-70
2023/10/14 04:39:04;;;;;;;3.70;0.95;;;;;;;22.22;52.07;99563.78;5034767;28;20193;-70
2023/10/14 04:41:32;;;;;;;8.23;1.08;;;;;;;22.17;52.42;99569.91;5035539;28;20286;-70
2023/10/14 04:44:03;;;;;;;8.60;1.58;;;;;;;22.09;52.63;99562.22;5035893;28;20219;-69
2023/10/14 04:46:45;;;;;;;4.85;1.02;;;;;;;22.06;52.50;99560.84;5036847;28;20280;-69
2023/10/14 04:49:15;;;;;;;7.60;1.30;;;;;;;22.03;52.85;99561.31;5033459;28;20212;-69
2023/10/14 04:51:46;;;;;;;7.93;1.50;;;;;;;21.98;53.20;99572.06;5034763;28;20243;-69
2023/10/14 04:54:19;;;;;;;6.07;1.27;;;;;;;21.96;53.10;99566.03;5032240;28;20594;-69
2023/10/14 04:56:47;;;;;;;6.95;1.73;;;;;;;21.95;53.05;99567.09;5035870;28;20311;-70
2023/10/14 04:59:19;;;;;;;7.80;1.60;;;;;;;21.91;53.53;99578.59;5034935;28;20236;-69
2023/10/14 05:01:50;;;;;;;5.72;1.17;;;;;;;21.85;53.74;99585.00;5031529;28;20628;-70
2023/10/14 05:04:20;;;;;;;9.73;1.33;;;;;;;21.85;53.79;99593.91;5034214;28;20295;-69
2023/10/14 05:06:52;;;;;;;7.63;2.10;;;;;;;21.92;54.01;99602.66;5034610;28;20285;-69
2023/10/14 05:09:30;;;;;;;5.43;1.80;;;;;;;21.87;53.88;99597.19;5031198;28;20535;-69
2023/10/14 05:12:00;;;;;;;5.63;1.53;;;;;;;21.88;53.90;99601.53;5034369;28;20204;-68
2023/10/14 05:14:36;;;;;;;6.13;1.52;;;;;;;21.83;54.12;99614.91;5032953;28;20548;-69
2023/10/14 05:17:14;;;;;;;5.27;1.67;;;;;;;21.78;54.51;99612.13;5032623;28;20635;-69
2023/10/14 05:19:43;;;;;;;7.93;1.47;;;;;;;21.75;54.60;99618.00;5037654;28;20224;-70
2023/10/14 05:22:18;;;;;;;3.30;1.10;;;;;;;21.76;54.69;99627.72;5032591;28;20209;-70
2023/10/14 05:24:49;;;;;;;6.70;1.15;;;;;;;21.71;54.96;99633.03;5033255;28;20200;-70
2023/10/14 05:27:19;;;;;;;4.80;1.20;;;;;;;21.67;55.23;99643.50;5035034;28;20200;-69
2023/10/14 05:29:50;;;;;;;8.30;1.10;;;;;;;21.69;55.01;99662.13;5032219;28;20204;-69
2023/10/14 05:32:23;;;;;;;4.13;0.97;;;;;;;21.69;55.27;99654.88;5033233;28;20204;-68
2023/10/14 05:34:52;;;;;;;4.60;1.00;;;;;;;21.74;54.97;99664.91;5030327;28;20234;-68
2023/10/14 05:37:21;;;;;;;7.17;1.37;;;;;;;21.66;55.31;99666.13;5034144;28;20844;-70
2023/10/14 05:39:50;;;;;;;3.63;0.93;;;;;;;21.65;55.36;99677.97;5036161;28;20205;-68
2023/10/14 05:42:21;;;;;;;3.70;1.03;;;;;;;21.69;55.46;99675.63;5033147;28;20217;-69
2023/10/14 05:44:54;;;;;;;3.30;0.55;;;;;;;21.71;55.20;99673.53;5033026;28;20222;-69
2023/10/14 05:47:27;;;;;;;5.03;0.73;;;;;;;21.61;56.07;99684.91;5032716;28;20205;-67
2023/10/14 05:49:54;;;;;;;2.00;0.55;;;;;;;21.54;57.92;99696.91;5031990;28;20208;-70
2023/10/14 05:52:24;;;;;;;1.83;0.67;;;;;;;21.44;59.13;99713.69;5031793;28;20208;-69
2023/10/14 05:54:52;;;;;;;3.13;0.70;;;;;;;21.40;60.44;99713.34;5034422;28;20598;-70
2023/10/14 05:57:22;;;;;;;4.90;0.43;;;;;;;21.32;62.08;99737.97;5031147;28;20232;-70
2023/10/14 05:59:50;;;;;;;4.43;0.70;;;;;;;21.25;62.80;99736.44;5034487;28;20705;-70
2023/10/14 06:02:19;;;;;;;6.93;1.13;;;;;;;21.21;63.01;99746.88;5033985;28;20271;-69
2023/10/14 06:04:50;;;;;;;4.13;0.80;;;;;;;21.18;63.20;99750.06;5031977;28;20203;-69
2023/10/14 06:11:52;;;;;;;8.07;1.30;;;;;;;21.05;63.71;99782.59;5072217;28;20202;-69
2023/10/14 06:21:59;;;;;;;3.30;0.90;;;;;;;20.96;63.50;99813.63;4952180;29;20208;-71
2023/10/14 06:35:47;;;;;;;3.80;0.80;;;;;;;20.88;63.66;99875.94;4913930;29;20223;-70
2023/10/14 07:05:01;;;;;;;5.70;3.97;;;;;;;20.60;65.37;99916.94;4938809;28;20234;-69
2023/10/14 07:19:42;;;;;;;1.43;0.47;;;;;;;20.64;62.80;99982.78;5037371;28;20895;-70
2023/10/14 07:41:45;;;;;;;1.60;0.40;;;;;;;20.46;62.01;100018.63;5036705;28;20228;-70
2023/10/14 08:00:12;;;;;;;1.37;0.70;;;;;;;20.49;62.07;100037.00;4943157;28;21353;-71
2023/10/14 08:03:56;;;;;;;2.13;1.00;;;;;;;20.51;61.74;100044.88;4954836;28;20256;-69
2023/10/14 08:06:49;;;;;;;2.73;0.30;;;;;;;20.51;61.32;100050.25;4945387;28;20559;-70
2023/10/14 08:10:36;;;;;;;2.60;0.30;;;;;;;20.49;61.22;100055.06;4958482;28;20208;-70
2023/10/14 08:13:47;;;;;;;1.67;0.50;;;;;;;20.54;60.92;100064.09;4959175;28;20203;-70
2023/10/14 08:20:34;;;;;;;1.10;0.40;;;;;;;20.62;58.03;100077.28;4983050;28;20223;-70
2023/10/14 08:27:55;;;;;;;0.77;0.20;;;;;;;20.80;56.51;100089.13;4974929;28;20297;-69
2023/10/14 08:49:42;;;;;;;4.90;1.10;;;;;;;21.01;51.77;100103.00;4907851;29;20228;-70
2023/10/14 08:53:07;;;;;;;3.60;1.43;;;;;;;20.95;50.83;100124.59;4972773;28;20598;-70
2023/10/14 09:14:53;;;;;;;4.07;1.30;;;;;;;23.96;42.67;100151.44;4967525;28;20204;-70
2023/10/14 09:17:44;;;;;;;3.42;1.33;;;;;;;22.97;44.74;100160.75;4953861;28;20235;-70
2023/10/14 09:24:11;;;;;;;;;;;;;;;;;;;;;
2023/10/14 09:46:20;;;;;;;6.47;1.33;;;;;;;21.13;49.36;100170.44;4815671;29;20368;-70
2023/10/14 10:24:45;;;;;;;3.80;1.30;;;;;;;21.10;48.36;100186.25;4767233;29;20220;-70
2023/10/14 10:28:27;;;;;;;5.83;1.63;;;;;;;21.24;48.36;100188.59;4744851;30;20223;-70
2023/10/14 10:38:37;;;;;;;9.23;1.77;;;;;;;21.09;48.43;100209.69;4829289;29;20254;-71
2023/10/14 11:04:38;;;;;;;6.27;1.57;;;;;;;20.98;46.43;100226.59;4998636;28;20208;-69
2023/10/14 11:07:23;;;;;;;5.10;1.60;;;;;;;20.86;46.31;100226.47;5040369;28;20205;-70
2023/10/14 11:14:43;;;;;;;5.67;1.60;;;;;;;21.22;44.29;100217.66;5040668;28;20212;-71
2023/10/14 11:20:36;;;;;;;5.57;1.40;;;;;;;21.96;40.93;100213.03;4978330;28;20199;-69
2023/10/14 11:30:42;;;;;;;5.05;1.30;;;;;;;21.66;36.81;100218.41;5041561;28;21025;-70
2023/10/14 12:22:22;;;;;;;4.77;1.17;;;;;;;21.19;36.40;100223.53;4937083;28;20214;-72
2023/10/14 12:25:22;;;;;;;4.43;1.60;;;;;;;21.23;37.19;100227.41;4923656;28;20200;-70
2023/10/14 12:36:09;;;;;;;6.05;1.23;;;;;;;23.63;32.91;100250.44;4955294;28;20249;-71
2023/10/14 12:42:47;;;;;;;6.90;1.48;;;;;;;23.99;32.05;100241.16;4976486;28;20222;-73
2023/10/14 12:49:42;;;;;;;6.00;1.20;;;;;;;22.57;34.61;100257.91;4936697;28;20218;-69
2023/10/14 13:01:23;;;;;;;4.97;1.63;;;;;;;21.77;36.57;100277.84;4967052;28;20217;-72
2023/10/14 13:27:27;;;;;;;5.13;1.10;;;;;;;20.48;36.40;100302.00;4815548;29;20311;-71
2023/10/14 13:33:29;;;;;;;5.07;1.27;;;;;;;20.37;36.58;100305.38;4850730;29;20224;-70
2023/10/14 13:41:07;;;;;;;2.93;1.20;;;;;;;20.71;37.00;100308.69;4776591;29;20365;-70
2023/10/14 13:44:20;;;;;;;6.37;1.30;;;;;;;20.87;36.88;100321.63;4852005;29;20347;-70
2023/10/14 13:47:20;;;;;;;4.37;1.03;;;;;;;20.93;37.47;100320.78;4925355;28;20629;-71
